Bookmark and Share
Track history (hours):
 

Blue Ridge Highway

Last reported at 2014-Apr-19 11:26 UTC. Time now 2014-Apr-19 19:42 UTC.
Position N 34°07' E 134°58'.

Length 180 m; draft 8.3 m.

Type: Cargo ship. MMSI: 355558000.

NotesDate/timePositionNaut miles runAvg speedWind from/ knotsBaromVisibWave heightAir tempDewpointWater temp
2014-Apr-19 11:26N 34°07' E 134°58'1314.2
2014-Apr-19 10:33N 34°19' E 134°59'1918.9
2014-Apr-19 09:33N 34°33' E 135°14'9 8.2
2014-Apr-19 08:29N 34°42' E 135°17'0 0.0
2014-Apr-19 07:17N 34°42' E 135°17'0 0.0
2014-Apr-19 06:23N 34°42' E 135°17'0 0.0
2014-Apr-19 05:29N 34°42' E 135°17'0 0.0
2014-Apr-19 04:29N 34°42' E 135°17'0 0.0
2014-Apr-19 03:29N 34°42' E 135°17'0 0.0
2014-Apr-19 02:29N 34°42' E 135°17'0 0.0
2014-Apr-19 01:29N 34°42' E 135°17'0 0.1
2014-Apr-19 00:29N 34°42' E 135°17'4 4.5
2014-Apr-18 23:33N 34°38' E 135°18'1716.8
2014-Apr-18 22:33N 34°24' E 135°06'1515.5
2014-Apr-18 21:33N 34°10' E 134°58'1615.5
2014-Apr-18 20:33N 33°54' E 134°59'  
2014-Apr-16 13:08N 34°37' E 139°24'1314.1
2014-Apr-16 12:13N 34°47' E 139°34'1116.0
2014-Apr-16 11:33N 34°57' E 139°39'1615.8
2014-Apr-16 10:33N 35°12' E 139°46'1212.0
2014-Apr-16 09:34N 35°23' E 139°42'4 3.9
2014-Apr-16 08:29N 35°27' E 139°41'0 0.0
2014-Apr-16 07:29N 35°27' E 139°41'0 0.0
2014-Apr-16 06:23N 35°27' E 139°41'0 0.0
2014-Apr-16 05:29N 35°27' E 139°41'0 0.0
2014-Apr-16 04:32N 35°27' E 139°41'0 0.0
2014-Apr-16 03:32N 35°27' E 139°41'0 0.0
2014-Apr-16 02:32N 35°27' E 139°41'0 0.1
2014-Apr-16 01:32N 35°27' E 139°41'0 0.0
2014-Apr-16 00:11N 35°27' E 139°41'0 0.0
2014-Apr-15 23:14N 35°27' E 139°41'0 0.0
2014-Apr-15 22:32N 35°27' E 139°41'2 1.9
2014-Apr-15 21:22N 35°26' E 139°44'0 0.1
2014-Apr-15 20:22N 35°26' E 139°44'0 0.0
2014-Apr-15 19:31N 35°26' E 139°44'0 0.0
2014-Apr-15 18:34N 35°26' E 139°44'0 0.0
2014-Apr-15 17:34N 35°26' E 139°44'0 0.0
2014-Apr-15 16:31N 35°26' E 139°44'0 0.1
2014-Apr-15 15:34N 35°26' E 139°44'0 0.0
2014-Apr-15 14:31N 35°26' E 139°44'0 0.0
2014-Apr-15 12:34N 35°26' E 139°44'0 0.1
2014-Apr-15 11:34N 35°26' E 139°44'0 0.0
2014-Apr-15 10:34N 35°26' E 139°44'0 0.1
2014-Apr-15 09:33N 35°26' E 139°44'0 0.1
2014-Apr-15 08:33N 35°26' E 139°44'0 0.0
2014-Apr-15 07:33N 35°26' E 139°44'0 0.0
2014-Apr-15 06:34N 35°26' E 139°44'0 0.0
2014-Apr-15 05:34N 35°26' E 139°44'0 0.0
2014-Apr-15 03:31N 35°26' E 139°44'0 0.0
2014-Apr-15 01:34N 35°26' E 139°43'1 0.5
2014-Apr-15 00:34N 35°26' E 139°43'1010.2
2014-Apr-14 23:34N 35°16' E 139°46'10 9.9
2014-Apr-14 22:34N 35°06' E 139°46'7 7.4
2014-Apr-14 21:34N 34°60' E 139°41'9 8.6
2014-Apr-14 20:34N 34°51' E 139°41'8 8.5
2014-Apr-14 19:34N 34°43' E 139°45'1515.2
2014-Apr-14 18:33N 34°43' E 140°03'1716.6
2014-Apr-14 17:34N 34°44' E 140°23'  

Dump ship's entire track history

sailing weather and tide predictions

Blue Ridge Highway — 3FEY4 — position and weather